Time;durP1;ratioP1;P1;durP2;ratioP2;P2;SDS_P1;SDS_P2;PMS_P1;PMS_P2;Temp;Humidity;BMP_temperature;BMP_pressure;BME280_temperature;BME280_humidity;BME280_pressure;Samples;Min_cycle;Max_cycle;Signal;HPM_P1;HPM_P2
2021/05/15 00:00:31;;;;;;;3.25;2.22;;;;;;;10.65;84.71;97126.83;1693134;85;21031;-79
2021/05/15 00:03:00;;;;;;;9.85;2.83;;;;;;;10.65;84.77;97130.80;1716408;83;21006;-79
2021/05/15 00:05:27;;;;;;;4.50;2.30;;;;;;;10.68;85.18;97131.12;1724958;83;21046;-79
2021/05/15 00:07:54;;;;;;;3.05;1.80;;;;;;;10.64;85.02;97129.09;1699228;84;21046;-79
2021/05/15 00:10:21;;;;;;;6.47;2.10;;;;;;;10.65;85.16;97124.17;1721514;83;21527;-79
2021/05/15 00:12:48;;;;;;;2.83;2.47;;;;;;;10.69;85.29;97121.80;1719811;83;21141;-79
2021/05/15 00:15:17;;;;;;;3.12;1.92;;;;;;;10.71;85.32;97124.34;1716597;83;21176;-79
2021/05/15 00:17:44;;;;;;;6.35;2.47;;;;;;;10.73;85.55;97123.83;1686713;83;21539;-80
2021/05/15 00:20:15;;;;;;;7.35;3.67;;;;;;;10.76;85.68;97124.16;1663886;85;21074;-80
2021/05/15 00:22:44;;;;;;;2.65;1.80;;;;;;;10.76;85.92;97118.86;1675880;85;21043;-80
2021/05/15 00:25:14;;;;;;;3.47;1.85;;;;;;;10.79;86.09;97114.73;1705025;83;21053;-80
2021/05/15 00:27:41;;;;;;;3.17;1.95;;;;;;;10.80;86.07;97129.24;1685097;85;21076;-80
2021/05/15 00:30:12;;;;;;;4.83;2.30;;;;;;;10.88;86.38;97132.88;1683043;85;21640;-80
2021/05/15 00:32:39;;;;;;;4.25;2.10;;;;;;;10.92;86.45;97135.79;1683032;85;21045;-79
2021/05/15 00:35:08;;;;;;;4.67;2.05;;;;;;;10.93;86.33;97126.90;1684265;84;21027;-80
2021/05/15 00:37:35;;;;;;;2.22;1.60;;;;;;;10.94;86.26;97125.13;1687480;85;21539;-80
2021/05/15 00:40:05;;;;;;;2.60;1.80;;;;;;;10.94;86.21;97128.64;1687611;85;21061;-79
2021/05/15 00:42:34;;;;;;;4.03;1.82;;;;;;;10.91;86.37;97131.88;1684492;85;21074;-79
2021/05/15 00:45:01;;;;;;;6.60;2.20;;;;;;;10.90;86.15;97131.48;1691120;83;22419;-79
2021/05/15 00:47:27;;;;;;;2.67;1.85;;;;;;;10.87;86.01;97131.64;1685000;84;21122;-80
2021/05/15 00:49:54;;;;;;;2.58;2.10;;;;;;;10.78;86.07;97131.11;1684375;84;21022;-79
2021/05/15 00:52:22;;;;;;;2.50;1.52;;;;;;;10.76;86.04;97140.91;1700775;84;21056;-78
2021/05/15 00:54:51;;;;;;;3.83;1.90;;;;;;;10.75;85.90;97132.56;1706090;82;21017;-78
2021/05/15 00:57:18;;;;;;;3.27;1.85;;;;;;;10.69;85.64;97132.39;1729765;83;21065;-78
2021/05/15 00:59:45;;;;;;;2.65;2.10;;;;;;;10.62;85.50;97130.92;1702567;83;21022;-78
2021/05/15 01:02:13;;;;;;;3.83;2.10;;;;;;;10.58;85.53;97134.63;1680920;84;21519;-78
2021/05/15 01:04:40;;;;;;;4.87;1.62;;;;;;;10.54;86.11;97137.01;1629304;87;21101;-78
2021/05/15 01:07:09;;;;;;;3.45;2.10;;;;;;;10.50;86.02;97134.13;1687420;85;21043;-78
2021/05/15 01:09:37;;;;;;;2.37;1.50;;;;;;;10.48;85.96;97134.63;1653692;85;21058;-78
2021/05/15 01:12:06;;;;;;;4.70;1.95;;;;;;;10.42;87.16;97134.39;1672563;86;21510;-78
2021/05/15 01:14:37;;;;;;;2.50;1.80;;;;;;;10.39;86.16;97138.03;1692039;83;21534;-79
2021/05/15 01:17:07;;;;;;;3.52;1.98;;;;;;;10.37;85.90;97137.25;1696611;84;21527;-79
2021/05/15 01:19:34;;;;;;;6.67;2.00;;;;;;;10.34;85.72;97136.53;1673310;85;21512;-79
2021/05/15 01:22:08;;;;;;;2.83;1.80;;;;;;;10.29;85.79;97137.58;1695107;83;21098;-79
2021/05/15 01:24:35;;;;;;;2.42;1.77;;;;;;;10.26;86.01;97136.86;1687212;83;21491;-79
2021/05/15 01:27:10;;;;;;;5.25;2.20;;;;;;;10.21;86.02;97134.86;1687738;83;21087;-79
2021/05/15 01:29:40;;;;;;;3.08;2.10;;;;;;;10.18;86.26;97134.53;1687563;85;21098;-79
2021/05/15 01:32:06;;;;;;;2.65;2.17;;;;;;;10.14;86.27;97132.45;1687150;85;21066;-79
2021/05/15 01:34:32;;;;;;;4.17;1.77;;;;;;;10.12;86.28;97130.34;1691875;83;21018;-79
2021/05/15 01:37:01;;;;;;;2.20;1.92;;;;;;;10.11;86.43;97135.70;1682307;85;21038;-79
2021/05/15 01:39:27;;;;;;;4.30;1.90;;;;;;;10.10;86.56;97133.98;1679158;84;21109;-79
2021/05/15 01:41:54;;;;;;;2.92;1.70;;;;;;;10.09;86.59;97130.94;1663487;86;21499;-78
2021/05/15 01:44:21;;;;;;;3.95;2.00;;;;;;;10.07;86.60;97124.38;1685101;83;21038;-78
2021/05/15 01:46:47;;;;;;;2.77;2.00;;;;;;;10.06;86.68;97133.70;1709957;83;21043;-78
2021/05/15 01:49:13;;;;;;;5.65;1.50;;;;;;;10.05;86.89;97130.19;1719986;83;21502;-79
2021/05/15 01:51:40;;;;;;;1.80;1.60;;;;;;;10.06;87.04;97137.23;1720031;83;21050;-79
2021/05/15 01:54:07;;;;;;;4.28;1.92;;;;;;;10.05;87.02;97131.50;1714936;83;21460;-78
2021/05/15 01:56:33;;;;;;;6.70;2.45;;;;;;;10.03;86.88;97134.70;1687446;85;21094;-78
2021/05/15 01:59:00;;;;;;;2.98;1.98;;;;;;;10.02;87.09;97128.52;1681820;85;21038;-79
2021/05/15 02:01:27;;;;;;;4.65;2.00;;;;;;;10.02;86.97;97135.63;1670472;85;21566;-79
2021/05/15 02:03:55;;;;;;;2.60;2.00;;;;;;;10.02;87.00;97129.84;1682918;83;21018;-78
2021/05/15 02:06:22;;;;;;;2.85;1.87;;;;;;;10.04;86.95;97129.34;1691355;85;21097;-79
2021/05/15 02:08:49;;;;;;;4.25;2.00;;;;;;;10.07;87.23;97128.80;1691821;85;21053;-78
2021/05/15 02:11:18;;;;;;;6.92;1.95;;;;;;;10.07;87.80;97127.03;1691455;84;21527;-79
2021/05/15 02:13:47;;;;;;;3.52;1.65;;;;;;;10.07;87.74;97130.13;1681740;84;21026;-78
2021/05/15 02:16:15;;;;;;;8.20;1.70;;;;;;;10.11;87.77;97126.43;1719183;83;21026;-78
2021/05/15 02:18:42;;;;;;;1.62;1.35;;;;;;;10.15;87.92;97126.25;1677585;83;21065;-78
2021/05/15 02:21:09;;;;;;;52.08;31.85;;;;;;;10.20;88.09;97120.75;1720023;83;21069;-78
2021/05/15 02:23:36;;;;;;;3.95;2.05;;;;;;;10.23;88.19;97126.38;1696335;83;21070;-78
2021/05/15 02:26:04;;;;;;;2.83;1.65;;;;;;;10.27;88.28;97122.23;1687974;83;21089;-78
2021/05/15 02:28:31;;;;;;;4.35;1.60;;;;;;;10.29;88.37;97124.34;1711691;83;21089;-78
2021/05/15 02:30:58;;;;;;;9.43;2.40;;;;;;;10.33;88.30;97131.69;1691197;85;21054;-78
2021/05/15 02:33:25;;;;;;;3.77;1.50;;;;;;;10.34;88.41;97131.23;1691450;84;21070;-79
2021/05/15 02:35:52;;;;;;;6.15;1.75;;;;;;;10.33;88.57;97139.62;1688686;83;21059;-79
2021/05/15 02:38:20;;;;;;;2.22;1.40;;;;;;;10.40;88.76;97135.80;1687408;85;21563;-77
2021/05/15 02:40:47;;;;;;;3.72;1.52;;;;;;;10.43;88.65;97129.52;1687379;85;21058;-77
2021/05/15 02:43:17;;;;;;;3.90;1.50;;;;;;;10.43;88.42;97136.14;1700262;83;21510;-78
2021/05/15 02:45:44;;;;;;;3.62;1.85;;;;;;;10.41;88.38;97137.97;1700244;83;21035;-78
2021/05/15 02:48:16;;;;;;;2.00;1.45;;;;;;;10.39;88.31;97143.81;1682883;85;21515;-77
2021/05/15 02:50:39;;;;;;;3.33;1.50;;;;;;;10.38;88.07;97136.80;1675507;85;21097;-77
2021/05/15 02:53:06;;;;;;;4.47;1.50;;;;;;;10.34;88.04;97149.29;1691023;83;21053;-78
2021/05/15 02:55:32;;;;;;;3.65;1.60;;;;;;;10.27;87.81;97150.04;1690973;85;21089;-77
2021/05/15 02:57:59;;;;;;;4.50;1.50;;;;;;;10.24;88.20;97150.60;1691305;85;21010;-77
2021/05/15 03:00:28;;;;;;;7.22;1.67;;;;;;;10.21;87.77;97145.45;1691143;84;21081;-77
2021/05/15 03:02:57;;;;;;;5.83;1.60;;;;;;;10.15;87.76;97150.53;1690599;83;21042;-77
2021/05/15 03:05:26;;;;;;;9.85;2.00;;;;;;;10.07;87.63;97150.85;1687361;85;21091;-78
2021/05/15 03:07:54;;;;;;;3.45;1.85;;;;;;;9.97;87.77;97153.48;1687305;85;21054;-77
2021/05/15 03:10:23;;;;;;;2.33;1.52;;;;;;;9.92;88.60;97156.30;1687262;85;21065;-77
2021/05/15 03:12:53;;;;;;;2.05;1.35;;;;;;;9.84;88.83;97161.91;1687866;82;21084;-78
2021/05/15 03:15:22;;;;;;;2.47;1.50;;;;;;;9.79;88.20;97163.88;1672833;85;21081;-78
2021/05/15 03:17:48;;;;;;;4.70;1.90;;;;;;;9.74;88.54;97161.88;1676464;83;21097;-77
2021/05/15 03:20:20;;;;;;;2.05;1.60;;;;;;;9.62;88.76;97157.48;1672608;83;21539;-77
2021/05/15 03:22:47;;;;;;;4.72;2.22;;;;;;;9.57;88.69;97162.09;1669338;84;21074;-77
2021/05/15 03:25:15;;;;;;;1.80;1.50;;;;;;;9.51;88.54;97157.05;1667276;85;21602;-77
2021/05/15 03:27:41;;;;;;;4.85;1.62;;;;;;;9.45;88.48;97156.81;1680205;85;21500;-78
2021/05/15 03:30:11;;;;;;;2.47;1.70;;;;;;;9.42;88.58;97160.04;1683144;83;21154;-78
2021/05/15 03:32:40;;;;;;;5.92;2.30;;;;;;;9.40;88.74;97157.90;1682753;85;21639;-78
2021/05/15 03:35:09;;;;;;;5.17;2.27;;;;;;;9.36;89.12;97158.48;1688369;83;21053;-78
2021/05/15 03:37:36;;;;;;;3.30;2.40;;;;;;;9.32;89.55;97164.80;1665194;86;21070;-78
2021/05/15 03:40:05;;;;;;;2.62;2.40;;;;;;;9.28;89.90;97173.77;1655816;86;21054;-78
2021/05/15 03:42:31;;;;;;;3.98;2.30;;;;;;;9.23;89.97;97177.44;1672023;86;21019;-79
2021/05/15 03:44:58;;;;;;;2.67;2.00;;;;;;;9.20;90.89;97180.67;1660370;85;21509;-78
2021/05/15 03:47:25;;;;;;;6.85;2.52;;;;;;;9.20;89.70;97181.55;1636269;86;21168;-78
2021/05/15 03:49:52;;;;;;;4.03;2.40;;;;;;;9.18;93.37;97184.69;1652435;86;21036;-78
2021/05/15 03:52:18;;;;;;;4.12;2.45;;;;;;;9.17;91.63;97184.77;1652015;86;21091;-78
2021/05/15 03:54:45;;;;;;;3.77;2.62;;;;;;;9.22;90.59;97192.91;1669886;85;21038;-78
2021/05/15 03:57:11;;;;;;;2.45;1.62;;;;;;;9.25;92.06;97191.93;1683022;85;21662;-78
2021/05/15 03:59:38;;;;;;;4.62;2.00;;;;;;;9.30;91.27;97191.78;1679808;85;21496;-77
2021/05/15 04:02:05;;;;;;;3.70;2.00;;;;;;;9.33;91.02;97204.86;1679379;85;21051;-78
2021/05/15 04:04:33;;;;;;;3.25;2.10;;;;;;;9.38;91.06;97197.63;1675572;84;21069;-78
2021/05/15 04:07:00;;;;;;;2.47;2.00;;;;;;;9.47;90.76;97199.92;1661106;85;21051;-78
2021/05/15 04:09:26;;;;;;;3.98;1.98;;;;;;;9.60;90.76;97192.85;1619758;87;21127;-77
2021/05/15 04:11:53;;;;;;;3.42;2.35;;;;;;;9.72;90.63;97192.84;1612448;89;21198;-77
2021/05/15 04:19:13;;;;;;;3.02;2.60;;;;;;;10.14;90.67;97197.80;1635288;88;21141;-78
2021/05/15 04:21:40;;;;;;;3.58;2.42;;;;;;;10.25;90.31;97197.34;1635651;88;21062;-78
2021/05/15 04:24:07;;;;;;;4.03;2.20;;;;;;;10.37;90.44;97190.23;1624948;88;21099;-78
2021/05/15 04:26:34;;;;;;;6.67;2.05;;;;;;;10.49;90.19;97203.91;1669070;84;21064;-78
2021/05/15 04:29:01;;;;;;;2.62;2.10;;;;;;;10.53;89.95;97201.08;1648415;85;21050;-78
2021/05/15 04:31:28;;;;;;;6.40;2.15;;;;;;;10.58;89.43;97207.49;1632434;86;21343;-78
2021/05/15 04:33:55;;;;;;;3.30;2.22;;;;;;;10.62;89.23;97206.89;1637698;87;21556;-78
2021/05/15 04:36:21;;;;;;;4.25;2.50;;;;;;;10.65;88.73;97203.67;1636375;86;21058;-77
2021/05/15 04:38:51;;;;;;;6.92;2.90;;;;;;;10.69;88.42;97201.74;1634988;87;21081;-78
2021/05/15 04:41:16;;;;;;;5.47;2.80;;;;;;;10.71;87.88;97210.48;1635576;86;21087;-79
2021/05/15 04:43:42;;;;;;;4.60;3.00;;;;;;;10.71;87.34;97209.15;1635884;87;21105;-77
2021/05/15 04:46:09;;;;;;;4.83;2.83;;;;;;;10.64;86.97;97211.68;1635566;86;21531;-77
2021/05/15 04:48:38;;;;;;;5.20;2.70;;;;;;;10.61;87.00;97213.13;1634769;88;21519;-79
2021/05/15 04:51:05;;;;;;;3.70;2.95;;;;;;;10.58;86.80;97206.17;1637771;86;21531;-79
2021/05/15 04:53:32;;;;;;;5.08;2.70;;;;;;;10.56;86.94;97215.50;1630226;87;21079;-79
2021/05/15 04:56:00;;;;;;;4.80;3.17;;;;;;;10.59;86.93;97220.29;1639391;86;21072;-78
2021/05/15 04:58:27;;;;;;;5.37;3.33;;;;;;;10.61;87.02;97222.40;1609978;89;21124;-79
2021/05/15 05:00:53;;;;;;;5.60;3.30;;;;;;;10.62;86.75;97225.44;1609970;89;21517;-79
2021/05/15 05:03:19;;;;;;;7.25;3.22;;;;;;;10.62;86.53;97224.98;1609839;89;21505;-79
2021/05/15 05:05:46;;;;;;;10.43;3.22;;;;;;;10.62;86.57;97222.79;1625399;86;21043;-78
2021/05/15 05:08:12;;;;;;;5.62;2.98;;;;;;;10.58;86.51;97222.55;1688056;84;21607;-78
2021/05/15 05:10:39;;;;;;;6.72;2.80;;;;;;;10.56;86.33;97219.95;1697462;84;21101;-78
2021/05/15 05:13:06;;;;;;;6.25;2.87;;;;;;;10.53;86.13;97222.72;1686803;84;21635;-78
2021/05/15 05:15:33;;;;;;;6.15;3.00;;;;;;;10.52;86.19;97227.63;1679142;84;21585;-79
2021/05/15 05:18:00;;;;;;;8.40;3.52;;;;;;;10.50;86.49;97225.52;1672294;85;21046;-78
2021/05/15 05:20:26;;;;;;;5.12;3.08;;;;;;;10.49;86.15;97222.00;1640383;86;21016;-79
2021/05/15 05:22:53;;;;;;;5.10;3.30;;;;;;;10.50;86.23;97222.88;1681990;84;21041;-78
2021/05/15 05:25:20;;;;;;;6.30;3.50;;;;;;;10.50;85.99;97226.36;1668648;85;21082;-78
2021/05/15 05:27:48;;;;;;;4.75;3.37;;;;;;;10.50;85.87;97225.04;1670509;85;21058;-78
2021/05/15 05:30:19;;;;;;;4.95;3.33;;;;;;;10.52;86.14;97224.53;1670032;85;21071;-78
2021/05/15 05:32:47;;;;;;;6.17;3.70;;;;;;;10.53;86.10;97238.17;1657632;86;21102;-78
2021/05/15 05:35:14;;;;;;;6.67;3.70;;;;;;;10.57;86.06;97240.22;1652598;86;21051;-79
2021/05/15 05:37:42;;;;;;;6.03;3.65;;;;;;;10.59;86.02;97233.05;1651801;86;21508;-78
2021/05/15 05:40:11;;;;;;;6.10;3.70;;;;;;;10.60;86.63;97233.48;1651946;86;21532;-78
2021/05/15 05:42:42;;;;;;;4.35;3.52;;;;;;;10.60;86.00;97229.50;1667333;85;21040;-78
2021/05/15 05:45:14;;;;;;;7.30;3.72;;;;;;;10.62;86.15;97236.03;1670927;84;21586;-78
2021/05/15 05:47:42;;;;;;;6.20;3.50;;;;;;;10.65;86.19;97234.59;1661203;85;21054;-79
2021/05/15 05:50:11;;;;;;;8.35;3.47;;;;;;;10.66;87.06;97230.56;1681173;84;21086;-78
2021/05/15 05:52:38;;;;;;;5.58;3.45;;;;;;;10.66;86.40;97221.73;1668183;84;21063;-79
2021/05/15 05:55:11;;;;;;;4.95;3.72;;;;;;;10.66;86.17;97229.23;1671181;85;21043;-79
2021/05/15 05:57:37;;;;;;;7.40;3.77;;;;;;;10.66;85.98;97227.91;1668970;85;21068;-79
2021/05/15 06:00:07;;;;;;;5.28;4.28;;;;;;;10.69;86.20;97226.47;1677858;85;21111;-79
2021/05/15 06:02:35;;;;;;;5.80;3.75;;;;;;;10.73;86.44;97224.99;1683352;83;21034;-79
2021/05/15 06:05:02;;;;;;;9.50;3.83;;;;;;;10.75;86.30;97222.67;1683144;85;21067;-79
2021/05/15 06:07:29;;;;;;;5.22;3.87;;;;;;;10.82;86.46;97217.98;1683329;85;21050;-79
2021/05/15 06:09:55;;;;;;;5.20;3.67;;;;;;;10.90;86.27;97218.97;1656643;85;21070;-79
2021/05/15 06:12:22;;;;;;;6.30;3.22;;;;;;;10.99;86.05;97221.22;1689025;83;20986;-79
2021/05/15 06:14:49;;;;;;;6.83;3.55;;;;;;;11.10;86.00;97212.80;1659537;86;21632;-79
2021/05/15 06:17:15;;;;;;;4.92;3.08;;;;;;;11.20;85.66;97217.22;1651862;86;21110;-79
2021/05/15 06:19:44;;;;;;;5.17;2.87;;;;;;;11.31;84.66;97219.39;1651858;86;20987;-79
2021/05/15 06:22:14;;;;;;;7.78;3.05;;;;;;;11.43;85.01;97220.17;1660034;85;21153;-79
2021/05/15 06:24:41;;;;;;;6.40;4.05;;;;;;;11.56;84.70;97220.47;1667186;85;21110;-79
2021/05/15 06:27:08;;;;;;;6.12;4.47;;;;;;;11.68;84.78;97220.38;1663603;85;21050;-80
2021/05/15 06:29:35;;;;;;;8.78;4.78;;;;;;;11.83;84.83;97220.10;1674322;85;21046;-79
2021/05/15 06:32:03;;;;;;;8.18;4.42;;;;;;;11.96;84.71;97216.88;1671174;85;21022;-79
2021/05/15 06:34:30;;;;;;;5.45;4.05;;;;;;;12.10;84.79;97213.58;1632479;86;21006;-76
2021/05/15 06:36:56;;;;;;;9.03;5.72;;;;;;;12.24;84.06;97212.44;1638464;87;22177;-78
2021/05/15 06:39:23;;;;;;;8.18;4.87;;;;;;;12.38;83.31;97212.23;1619103;88;21099;-79
2021/05/15 06:41:49;;;;;;;5.72;4.78;;;;;;;12.53;84.12;97211.47;1605554;87;21064;-78
2021/05/15 06:44:16;;;;;;;6.20;4.40;;;;;;;12.70;83.81;97214.22;1651974;86;21480;-78
2021/05/15 06:46:42;;;;;;;5.72;4.55;;;;;;;12.82;83.54;97210.91;1678085;85;21070;-78
2021/05/15 06:49:09;;;;;;;7.42;5.37;;;;;;;12.94;83.13;97220.94;1688167;85;21022;-78
2021/05/15 06:51:35;;;;;;;10.08;5.10;;;;;;;13.04;82.42;97223.95;1658245;86;21506;-78
2021/05/15 06:54:03;;;;;;;5.80;5.10;;;;;;;13.16;82.63;97228.27;1697630;84;21030;-78
2021/05/15 06:56:30;;;;;;;17.52;7.58;;;;;;;13.27;81.99;97228.55;1697576;84;21117;-78
2021/05/15 06:58:56;;;;;;;6.55;5.55;;;;;;;13.37;81.79;97226.24;1693613;84;21069;-77
2021/05/15 07:01:23;;;;;;;8.08;5.83;;;;;;;13.43;81.26;97226.40;1688099;83;21056;-78
2021/05/15 07:03:49;;;;;;;10.23;7.87;;;;;;;13.52;81.03;97229.06;1693432;83;21077;-78
2021/05/15 07:06:15;;;;;;;6.45;4.85;;;;;;;13.58;80.81;97224.76;1687377;85;21078;-78
2021/05/15 07:08:42;;;;;;;9.05;5.25;;;;;;;13.63;79.94;97221.83;1687364;85;21030;-78
2021/05/15 07:11:08;;;;;;;6.35;4.87;;;;;;;13.68;80.02;97231.30;1687526;85;21086;-78
2021/05/15 07:13:35;;;;;;;6.97;5.30;;;;;;;13.76;79.62;97226.02;1716346;82;21053;-78
2021/05/15 07:16:02;;;;;;;6.67;5.10;;;;;;;13.83;79.36;97227.41;1720035;83;21046;-78
2021/05/15 07:18:28;;;;;;;13.03;5.72;;;;;;;13.92;79.36;97223.36;1720082;83;21515;-79
2021/05/15 07:20:55;;;;;;;7.28;5.15;;;;;;;14.04;79.01;97228.48;1720151;83;21050;-78
2021/05/15 07:23:21;;;;;;;6.62;4.35;;;;;;;14.11;77.77;97221.84;1692257;82;21077;-78
2021/05/15 07:25:48;;;;;;;4.87;4.28;;;;;;;14.21;77.10;97224.86;1677705;84;21628;-79
2021/05/15 07:28:15;;;;;;;6.25;4.80;;;;;;;14.32;77.59;97230.43;1672001;85;21038;-79
2021/05/15 07:30:42;;;;;;;6.22;4.60;;;;;;;14.43;76.15;97228.95;1663296;85;21071;-79
2021/05/15 07:33:11;;;;;;;8.05;3.80;;;;;;;14.52;75.49;97231.96;1683402;83;21057;-79
2021/05/15 07:35:37;;;;;;;6.40;3.50;;;;;;;14.59;74.56;97227.59;1687401;85;21067;-78
2021/05/15 07:38:03;;;;;;;5.67;4.12;;;;;;;14.67;73.85;97227.14;1713793;83;21071;-78
2021/05/15 07:40:30;;;;;;;4.08;3.30;;;;;;;14.74;75.07;97220.52;1717519;83;21016;-79
2021/05/15 07:42:57;;;;;;;4.55;3.45;;;;;;;14.81;72.85;97224.55;1712962;83;21072;-79
2021/05/15 07:45:23;;;;;;;4.35;3.22;;;;;;;14.87;73.25;97223.34;1691381;85;21066;-79
2021/05/15 07:47:50;;;;;;;5.67;3.85;;;;;;;14.93;71.89;97222.97;1686285;83;21076;-78
2021/05/15 07:50:16;;;;;;;4.60;3.90;;;;;;;15.00;72.40;97231.47;1697747;83;21546;-78
2021/05/15 07:52:44;;;;;;;6.78;3.90;;;;;;;15.06;72.95;97223.58;1683405;84;21523;-77
2021/05/15 07:55:12;;;;;;;5.47;3.60;;;;;;;15.10;72.76;97228.63;1677831;85;21476;-78
2021/05/15 07:57:38;;;;;;;8.68;4.22;;;;;;;15.15;71.95;97229.20;1679238;83;21156;-77
2021/05/15 08:00:06;;;;;;;6.50;4.10;;;;;;;15.18;71.19;97230.83;1675672;82;21129;-77
2021/05/15 08:02:36;;;;;;;5.17;4.05;;;;;;;15.21;70.98;97231.98;1675204;83;21037;-77
2021/05/15 08:05:03;;;;;;;5.15;3.67;;;;;;;15.25;70.16;97224.17;1698552;81;20986;-77
2021/05/15 08:07:31;;;;;;;4.92;3.98;;;;;;;15.33;71.26;97226.84;1664373;84;21107;-77
2021/05/15 08:09:57;;;;;;;4.83;3.47;;;;;;;15.40;70.31;97224.19;1669575;83;21258;-77
2021/05/15 08:12:24;;;;;;;4.67;3.45;;;;;;;15.43;68.81;97226.19;1684587;83;22110;-76
2021/05/15 08:14:50;;;;;;;5.50;3.40;;;;;;;15.48;68.13;97225.89;1650219;84;21058;-76
2021/05/15 08:17:17;;;;;;;3.55;2.58;;;;;;;15.56;69.65;97221.40;1694289;82;21062;-76
2021/05/15 08:19:43;;;;;;;7.50;3.15;;;;;;;15.61;68.18;97219.30;1693113;85;21062;-77
2021/05/15 08:22:10;;;;;;;4.62;3.22;;;;;;;15.68;66.95;97219.77;1692374;85;21140;-77
2021/05/15 08:24:36;;;;;;;3.33;3.02;;;;;;;15.82;66.78;97217.59;1690407;84;21062;-78
2021/05/15 08:27:03;;;;;;;7.78;3.77;;;;;;;15.94;65.14;97212.81;1665417;84;21146;-78
2021/05/15 08:29:32;;;;;;;6.58;4.25;;;;;;;16.05;66.37;97217.47;1679041;85;21043;-78
2021/05/15 08:32:00;;;;;;;5.45;3.70;;;;;;;16.17;65.49;97207.80;1654957;86;21135;-78
2021/05/15 08:34:28;;;;;;;3.92;2.90;;;;;;;16.25;63.07;97208.63;1656867;86;21043;-79
2021/05/15 08:36:54;;;;;;;4.67;2.98;;;;;;;16.30;63.40;97197.16;1669137;85;21198;-78
2021/05/15 08:39:21;;;;;;;2.90;2.52;;;;;;;16.37;62.00;97201.63;1647762;86;21086;-77
2021/05/15 08:41:47;;;;;;;2.87;1.82;;;;;;;16.38;60.26;97203.33;1668169;85;21535;-77
2021/05/15 08:44:14;;;;;;;3.85;2.40;;;;;;;16.45;61.36;97187.74;1678766;84;21022;-77
2021/05/15 08:46:45;;;;;;;2.98;1.92;;;;;;;16.52;62.81;97193.05;1678637;85;21081;-77
2021/05/15 08:49:15;;;;;;;3.15;2.17;;;;;;;16.57;60.47;97184.23;1655946;86;21019;-77
2021/05/15 08:51:42;;;;;;;3.30;1.80;;;;;;;16.63;60.05;97184.31;1679270;85;21524;-77
2021/05/15 08:54:09;;;;;;;1.62;1.52;;;;;;;16.70;59.22;97182.08;1675079;85;21085;-76
2021/05/15 08:56:36;;;;;;;3.17;1.67;;;;;;;16.81;57.64;97180.02;1666144;86;21115;-77
2021/05/15 08:59:03;;;;;;;3.62;1.87;;;;;;;16.87;59.78;97180.93;1667213;86;21074;-73
2021/05/15 09:01:30;;;;;;;5.92;1.87;;;;;;;16.88;58.83;97172.80;1667548;86;21042;-73
2021/05/15 09:03:57;;;;;;;4.08;2.25;;;;;;;16.92;56.85;97174.78;1655218;85;21098;-74
2021/05/15 09:06:24;;;;;;;3.33;1.90;;;;;;;16.95;57.76;97179.93;1611418;87;21540;-74
2021/05/15 09:08:51;;;;;;;4.22;2.17;;;;;;;16.93;57.21;97176.48;1642574;87;21070;-74
2021/05/15 09:11:18;;;;;;;3.02;2.30;;;;;;;16.95;56.13;97180.40;1672395;85;21074;-73
2021/05/15 09:13:55;;;;;;;3.02;1.80;;;;;;;17.00;57.71;97182.27;1654601;85;21051;-74
2021/05/15 09:16:23;;;;;;;2.42;1.90;;;;;;;17.06;57.77;97181.87;1654145;86;21091;-73
2021/05/15 09:18:50;;;;;;;2.30;1.92;;;;;;;17.12;57.27;97180.60;1655039;86;21035;-73
2021/05/15 09:21:21;;;;;;;3.15;1.85;;;;;;;17.15;55.57;97171.03;1665245;85;21081;-73
2021/05/15 09:23:51;;;;;;;2.05;1.80;;;;;;;17.22;56.05;97178.12;1685207;85;21063;-73
2021/05/15 09:26:27;;;;;;;2.98;2.10;;;;;;;17.27;55.22;97173.30;1659744;86;21070;-73
2021/05/15 09:28:59;;;;;;;2.47;1.77;;;;;;;17.32;55.05;97181.03;1670467;84;21122;-73
2021/05/15 09:31:38;;;;;;;2.67;1.98;;;;;;;17.31;55.59;97174.80;1657506;85;21086;-72
2021/05/15 09:34:06;;;;;;;2.00;1.57;;;;;;;17.39;54.95;97172.45;1679565;84;21547;-73
2021/05/15 09:36:39;;;;;;;3.60;2.45;;;;;;;17.43;55.15;97174.42;1653727;85;21058;-73
2021/05/15 09:39:20;;;;;;;2.80;2.10;;;;;;;17.54;55.30;97174.53;1677082;84;21133;-73
2021/05/15 09:41:58;;;;;;;2.17;1.67;;;;;;;17.66;55.76;97168.75;1665864;86;21136;-74
2021/05/15 09:44:30;;;;;;;1.87;1.45;;;;;;;17.92;56.21;97168.70;1698861;83;21032;-74
2021/05/15 09:46:58;;;;;;;2.12;1.92;;;;;;;18.13;56.00;97170.80;1700251;83;21076;-74
2021/05/15 09:49:28;;;;;;;2.12;1.82;;;;;;;18.26;56.38;97184.16;1666421;85;21038;-74
2021/05/15 09:52:00;;;;;;;4.35;2.12;;;;;;;18.33;54.91;97178.72;1666518;86;21047;-74
2021/05/15 09:54:34;;;;;;;3.00;1.60;;;;;;;18.40;54.84;97173.72;1646034;85;21059;-74
2021/05/15 09:57:04;;;;;;;2.17;1.40;;;;;;;18.49;55.01;97173.55;1650811;85;21472;-74
2021/05/15 09:59:44;;;;;;;4.20;1.62;;;;;;;18.75;53.78;97169.36;1660849;86;21374;-74
2021/05/15 10:02:17;;;;;;;22.20;5.42;;;;;;;19.08;51.97;97169.58;1657358;84;21058;-74
2021/05/15 10:04:48;;;;;;;213.75;44.42;;;;;;;19.28;52.25;97165.34;1651886;85;21044;-74
2021/05/15 10:07:21;;;;;;;287.57;57.08;;;;;;;19.48;50.00;97173.66;1664316;85;21058;-72
2021/05/15 10:09:48;;;;;;;2.35;1.87;;;;;;;19.59;51.89;97164.25;1639620;86;21087;-75
2021/05/15 10:12:15;;;;;;;3.40;2.25;;;;;;;19.80;52.08;97167.52;1631110;87;21074;-74
2021/05/15 10:14:42;;;;;;;3.62;1.92;;;;;;;19.94;51.24;97154.32;1629120;88;21063;-74
2021/05/15 10:17:08;;;;;;;3.92;1.85;;;;;;;20.10;49.93;97156.61;1629121;88;21098;-75
2021/05/15 10:19:35;;;;;;;4.92;1.72;;;;;;;20.28;49.41;97154.73;1621779;88;21075;-75
2021/05/15 10:22:02;;;;;;;2.47;1.90;;;;;;;20.50;49.07;97155.63;1616868;88;21088;-75
2021/05/15 10:24:34;;;;;;;2.52;1.80;;;;;;;20.66;49.31;97151.16;1631652;87;21088;-73
2021/05/15 10:27:11;;;;;;;4.95;1.60;;;;;;;20.80;47.94;97150.83;1610522;87;21119;-73
2021/05/15 10:29:49;;;;;;;7.62;3.20;;;;;;;20.87;45.52;97148.51;1635441;88;21082;-74
2021/05/15 10:32:26;;;;;;;5.03;2.02;;;;;;;20.91;46.43;97149.09;1632094;86;21086;-73
2021/05/15 10:35:06;;;;;;;51.42;11.73;;;;;;;20.97;47.77;97144.55;1639454;86;21062;-72
2021/05/15 10:37:39;;;;;;;1.95;1.70;;;;;;;21.18;48.72;97148.55;1635404;88;21102;-76
2021/05/15 10:40:17;;;;;;;2.92;1.55;;;;;;;21.34;46.92;97141.84;1633560;88;21137;-75
2021/05/15 10:42:45;;;;;;;2.40;1.67;;;;;;;22.00;47.29;97135.60;1632425;86;21070;-76
2021/05/15 10:45:13;;;;;;;7.60;4.20;;;;;;;22.08;45.24;97137.63;1635271;87;21228;-75
2021/05/15 10:47:43;;;;;;;3.22;2.00;;;;;;;22.10;46.60;97138.34;1635514;88;21108;-76
2021/05/15 10:50:21;;;;;;;2.22;1.50;;;;;;;22.02;44.29;97137.69;1615480;88;21238;-75
2021/05/15 10:52:51;;;;;;;4.25;2.08;;;;;;;21.92;42.78;97136.81;1639915;85;21081;-75
2021/05/15 10:55:33;;;;;;;93.80;21.15;;;;;;;22.32;44.52;97132.31;1667131;86;21121;-75
2021/05/15 10:58:11;;;;;;;40.58;9.70;;;;;;;22.29;44.31;97133.45;1642363;86;21042;-75
2021/05/15 11:00:39;;;;;;;2.17;1.52;;;;;;;22.13;44.71;97135.37;1635875;88;22186;-75
2021/05/15 11:03:06;;;;;;;11.10;3.08;;;;;;;22.07;43.69;97132.72;1638352;86;21070;-75
2021/05/15 11:05:44;;;;;;;7.80;2.58;;;;;;;22.14;44.91;97131.67;1635721;88;21078;-75
2021/05/15 11:08:24;;;;;;;140.75;28.25;;;;;;;22.20;45.75;97130.23;1632305;88;21079;-75
2021/05/15 11:10:52;;;;;;;7.28;2.05;;;;;;;22.20;45.05;97136.50;1633888;88;21548;-74
2021/05/15 11:13:20;;;;;;;4.55;2.25;;;;;;;22.12;44.81;97134.50;1638948;86;21113;-75
2021/05/15 11:15:46;;;;;;;5.60;1.75;;;;;;;22.00;44.49;97139.16;1635342;86;21074;-75
2021/05/15 11:18:15;;;;;;;1.75;1.10;;;;;;;21.84;43.27;97136.16;1637344;86;21058;-75
2021/05/15 11:20:48;;;;;;;3.95;1.32;;;;;;;21.80;44.16;97130.68;1642267;86;21038;-75
2021/05/15 11:23:20;;;;;;;9.13;3.12;;;;;;;21.75;44.59;97125.20;1638108;86;21118;-74
2021/05/15 11:25:55;;;;;;;4.35;1.37;;;;;;;21.72;44.09;97121.93;1635446;85;21094;-78
2021/05/15 11:28:24;;;;;;;2.77;1.02;;;;;;;21.59;43.62;97120.28;1634624;86;21106;-79
2021/05/15 11:30:50;;;;;;;11.40;3.10;;;;;;;21.58;44.40;97125.81;1634991;87;21094;-75
2021/05/15 11:33:20;;;;;;;8.98;4.97;;;;;;;21.66;44.21;97111.16;1631803;86;21544;-75
2021/05/15 11:35:51;;;;;;;10.25;8.70;;;;;;;22.01;43.79;97115.75;1635628;86;21129;-76
2021/05/15 11:38:27;;;;;;;3.15;2.72;;;;;;;22.13;43.39;97116.48;1635586;86;21074;-75
2021/05/15 11:41:01;;;;;;;2.87;2.67;;;;;;;22.14;42.85;97116.83;1633474;88;21059;-76
2021/05/15 11:43:37;;;;;;;120.13;21.37;;;;;;;22.09;43.23;97111.00;1636122;86;21070;-79